Track Малиновский Степан

Time Latitude Longitude Accuracy (66% radius in meters) Altitude (meters) Speed (km/hour) Bearing (degrees) Battery (%) GPS flag
10:22:21 60.370934 29.556431 6 76.634416610684 0.013696920126677 108.06047821045 92 0 delete
10:22:09 60.370934 29.556431 6 76.634416610684 0.013696920126677 108.06047821045 92 0 delete
10:21:58 60.370934 29.556431 6 76.634416610684 0.013696920126677 108.06047821045 92 0 delete
10:21:47 60.370934 29.556431 6 76.634416610684 0.013696920126677 108.06047821045 92 0 delete
10:21:36 60.370934 29.556431 6 76.634416610684 0.013696920126677 108.06047821045 92 0 delete
10:21:24 60.370934 29.556431 6 76.634416610684 0.013696920126677 108.06047821045 92 0 delete
10:21:13 60.370934 29.556431 6 76.634416610684 0.013696920126677 108.06047821045 92 0 delete
09:20:54 60.370908 29.556400 16 76.42496029753 0 204.04986572266 92 1 delete
09:20:48 60.370907 29.556393 12 76.60483115129 0.92252820730209 204.04986572266 92 1 delete
09:20:36 60.370921 29.556409 12 76.540773317787 0.0088226981461048 236.30183410645 92 1 delete
09:20:27 60.370934 29.556431 6 76.634416610684 0.013696920126677 108.06047821045 92 1 delete
09:20:24 60.370948 29.556369 6 76.72349387783 1.707021355629 124.11563110352 92 1 delete
09:20:21 60.370971 29.556319 6 76.907961984342 1.7707325220108 175.25457763672 92 1 delete
09:20:18 60.371019 29.556303 6 77.046519215702 1.7157860994339 181.8165435791 92 1 delete
09:20:15 60.371075 29.556312 4 77.196876759947 1.6528563499451 197.92965698242 92 1 delete
09:20:12 60.371133 29.556343 6 77.200611868703 1.5840655565262 212.88069152832 92 1 delete
09:20:09 60.371179 29.556403 4 76.977542198412 1.533494591713 213.50564575195 92 1 delete
09:20:06 60.371237 29.556418 6 76.862316153172 1.4117928743362 229.93183898926 92 1 delete
09:20:03 60.371298 29.556463 6 76.73353723834 1.2310849428177 217.42892456055 92 1 delete
09:19:51 60.371378 29.556482 6 76.10111259382 0 0 92 1 delete
09:19:39 60.371378 29.556482 6 75.986251785502 0 0 92 1 delete
09:19:27 60.371378 29.556482 6 75.9221480532 0 0 92 1 delete
09:19:18 60.371378 29.556482 6 75.839245609099 0 0 92 1 delete
09:19:06 60.371378 29.556482 8 75.80443371461 0 0 92 1 delete
09:18:54 60.371378 29.556482 8 75.821436052407 0 0 92 1 delete
09:18:42 60.371378 29.556482 6 76.182136519449 0 0 92 1 delete
09:18:30 60.371378 29.556482 12 76.445076606137 0 0 92 1 delete
09:18:21 60.371378 29.556482 12 76.528752503321 0 0 92 1 delete
09:18:09 60.371378 29.556482 8 76.489308583693 0 0 92 1 delete
09:17:57 60.371378 29.556482 6 76.543980760712 0 0 92 1 delete
09:17:45 60.371378 29.556482 8 76.557612700519 0 0 92 1 delete
09:17:36 60.371378 29.556482 6 76.625424945876 0 0 92 1 delete
09:17:24 60.371378 29.556482 6 76.657003678688 0 0 92 1 delete
09:17:12 60.371378 29.556482 4 76.740051408264 0 0 92 1 delete
09:17:00 60.371378 29.556482 6 76.761513754565 0 0 92 1 delete
09:16:48 60.371378 29.556482 4 76.822859362782 0 0 92 1 delete
09:16:39 60.371378 29.556482 4 76.868835127179 0 0 92 1 delete
09:16:27 60.371378 29.556482 6 76.938120568742 0 0 92 1 delete
09:16:15 60.371378 29.556482 6 77.042569886876 0 0 92 1 delete
09:16:03 60.371378 29.556482 8 77.087959003321 0 0 92 1 delete
09:15:54 60.371378 29.556482 6 76.99891339067 0 0 92 1 delete
09:15:42 60.371378 29.556482 8 76.815447426338 0 0 92 1 delete
09:15:30 60.371378 29.556482 8 76.780357654445 0 0 92 1 delete
09:15:18 60.371378 29.556482 8 77.039561912588 0 0 92 1 delete
09:15:06 60.371378 29.556482 8 76.907286228892 0 0 92 1 delete
09:14:57 60.371378 29.556482 8 76.742856933732 0 0 92 1 delete
09:14:45 60.371378 29.556482 6 76.634379747843 0 0 92 1 delete
09:14:36 60.371378 29.556482 12 76.591033188037 0 0 92 1 delete
09:14:24 60.371378 29.556482 6 76.548801104721 0 0 92 1 delete
09:14:15 60.371378 29.556482 8 76.489016512376 0 0 92 1 delete